createdAt,value
2022-11-21T00:00:46.113Z,4.80
2022-11-21T00:03:13.009Z,4.80
2022-11-21T00:05:43.586Z,4.80
2022-11-21T00:08:10.980Z,4.80
2022-11-21T00:10:38.249Z,4.80
2022-11-21T00:13:05.426Z,4.80
2022-11-21T00:15:33.117Z,4.80
2022-11-21T00:18:01.857Z,4.70
2022-11-21T00:20:28.495Z,4.70
2022-11-21T00:22:55.314Z,4.70
2022-11-21T00:25:21.982Z,4.70
2022-11-21T00:27:48.653Z,4.70
2022-11-21T00:30:15.376Z,4.70
2022-11-21T00:32:42.035Z,4.80
2022-11-21T00:35:08.758Z,4.80
2022-11-21T00:37:35.446Z,4.80
2022-11-21T00:40:02.142Z,4.90
2022-11-21T00:42:28.799Z,4.90
2022-11-21T00:44:55.461Z,4.90
2022-11-21T00:47:22.105Z,4.90
2022-11-21T00:49:48.942Z,4.90
2022-11-21T00:52:16.522Z,5.00
2022-11-21T00:54:43.170Z,5.00
2022-11-21T00:57:09.963Z,4.90
2022-11-21T00:59:36.652Z,4.90
2022-11-21T01:02:03.432Z,4.90
2022-11-21T01:04:33.845Z,4.90
2022-11-21T01:07:00.627Z,4.90
2022-11-21T01:09:28.724Z,4.90
2022-11-21T01:11:56.271Z,4.90
2022-11-21T01:14:23.342Z,4.90
2022-11-21T01:16:49.994Z,5.00
2022-11-21T01:19:16.702Z,5.00
2022-11-21T01:21:43.442Z,5.00
2022-11-21T01:24:11.337Z,5.00
2022-11-21T01:26:38.164Z,5.00
2022-11-21T01:29:05.189Z,5.10
2022-11-21T01:31:31.974Z,5.10
2022-11-21T01:33:59.431Z,5.10
2022-11-21T01:36:27.439Z,5.10
2022-11-21T01:38:55.300Z,5.10
2022-11-21T01:41:28.440Z,5.20
2022-11-21T01:43:55.085Z,5.20
2022-11-21T01:46:22.253Z,5.20
2022-11-21T01:49:09.167Z,5.20
2022-11-21T01:51:35.842Z,5.20
2022-11-21T01:54:02.540Z,5.20
2022-11-21T01:56:33.005Z,5.20
2022-11-21T01:59:01.438Z,5.20
2022-11-21T02:01:28.874Z,5.20
2022-11-21T02:03:56.729Z,5.20
2022-11-21T02:06:24.126Z,5.20
2022-11-21T02:08:50.871Z,5.20
2022-11-21T02:11:17.557Z,5.20
2022-11-21T02:13:44.197Z,5.20
2022-11-21T02:16:11.414Z,5.20
2022-11-21T02:18:38.079Z,5.20
2022-11-21T02:21:22.651Z,5.20
2022-11-21T02:24:00.598Z,5.20
2022-11-21T02:26:27.426Z,5.20
2022-11-21T02:31:22.079Z,5.10
2022-11-21T02:33:48.694Z,5.00
2022-11-21T02:36:33.422Z,4.90
2022-11-21T02:39:00.374Z,4.90
2022-11-21T02:41:27.817Z,4.90
2022-11-21T02:43:59.641Z,4.80
2022-11-21T02:46:29.082Z,4.80
2022-11-21T02:48:56.563Z,4.80
2022-11-21T02:51:23.193Z,4.80
2022-11-21T02:53:49.819Z,4.80
2022-11-21T02:56:16.446Z,4.80
2022-11-21T02:58:43.310Z,4.70
2022-11-21T03:01:09.959Z,4.70
2022-11-21T03:03:36.682Z,4.80
2022-11-21T03:06:03.336Z,4.80
2022-11-21T03:08:29.994Z,4.90
2022-11-21T03:10:56.607Z,4.90
2022-11-21T03:13:23.255Z,5.00
2022-11-21T03:15:49.894Z,5.00
2022-11-21T03:18:16.518Z,5.10
2022-11-21T03:20:43.135Z,5.10
2022-11-21T03:23:09.747Z,5.10
2022-11-21T03:25:36.401Z,5.00
2022-11-21T03:28:03.050Z,5.00
2022-11-21T03:30:29.666Z,4.90
2022-11-21T03:32:56.998Z,4.80
2022-11-21T03:35:24.122Z,4.80
2022-11-21T03:37:50.780Z,4.70
2022-11-21T03:40:17.456Z,4.70
2022-11-21T03:42:44.233Z,4.60
2022-11-21T03:45:10.993Z,4.60
2022-11-21T03:47:37.606Z,4.50
2022-11-21T03:50:04.416Z,4.50
2022-11-21T03:52:31.052Z,4.40
2022-11-21T03:54:57.652Z,4.40
2022-11-21T03:57:24.292Z,4.40
2022-11-21T03:59:50.946Z,4.40
2022-11-21T04:02:17.587Z,4.40
2022-11-21T04:04:44.207Z,4.40
2022-11-21T04:07:10.979Z,4.50
2022-11-21T04:09:38.021Z,4.50
2022-11-21T04:12:07.695Z,4.60
2022-11-21T04:14:35.058Z,4.60
2022-11-21T04:17:01.705Z,4.70
2022-11-21T04:19:28.321Z,4.70
2022-11-21T04:21:54.983Z,4.80
2022-11-21T04:24:21.595Z,4.80
2022-11-21T04:26:48.193Z,4.90
2022-11-21T04:29:14.807Z,4.90
2022-11-21T04:31:41.416Z,4.90
2022-11-21T04:34:08.040Z,5.00
2022-11-21T04:36:34.671Z,5.00
2022-11-21T04:39:01.330Z,5.10
2022-11-21T04:41:27.964Z,5.10
2022-11-21T04:43:54.595Z,5.20
2022-11-21T04:46:21.244Z,5.20
2022-11-21T04:48:47.866Z,5.20
2022-11-21T04:51:14.481Z,5.20
2022-11-21T04:53:43.091Z,5.30
2022-11-21T04:56:10.294Z,5.30
2022-11-21T04:58:36.916Z,5.30
2022-11-21T05:01:08.016Z,5.20
2022-11-21T05:03:35.078Z,5.20
2022-11-21T05:06:01.851Z,5.30
2022-11-21T05:08:28.661Z,5.20
2022-11-21T05:11:13.950Z,5.30
2022-11-21T05:13:40.567Z,5.20
2022-11-21T05:16:07.202Z,5.20
2022-11-21T05:18:33.814Z,5.20
2022-11-21T05:21:01.106Z,5.20
2022-11-21T05:23:27.891Z,5.20
2022-11-21T05:25:54.501Z,5.20
2022-11-21T05:28:21.140Z,5.20
2022-11-21T05:30:47.787Z,5.20
2022-11-21T05:33:14.450Z,5.10
2022-11-21T05:35:43.463Z,5.10
2022-11-21T05:38:10.520Z,5.10
2022-11-21T05:40:37.147Z,5.10
2022-11-21T05:43:22.481Z,5.10
2022-11-21T05:45:50.184Z,5.00
2022-11-21T05:48:17.250Z,4.90
2022-11-21T05:50:46.820Z,4.90
2022-11-21T05:53:13.482Z,4.80
2022-11-21T05:55:40.105Z,4.70
2022-11-21T05:58:08.999Z,4.70
2022-11-21T06:00:35.601Z,4.70
2022-11-21T06:03:20.992Z,4.80
2022-11-21T06:05:47.657Z,4.80
2022-11-21T06:08:14.269Z,4.80
2022-11-21T06:10:40.918Z,4.80
2022-11-21T06:13:22.176Z,4.80
2022-11-21T06:15:51.981Z,4.90
2022-11-21T06:18:18.791Z,4.90
2022-11-21T06:20:45.644Z,5.00
2022-11-21T06:23:12.709Z,5.00
2022-11-21T06:25:39.458Z,5.00
2022-11-21T06:28:06.125Z,5.00
2022-11-21T06:30:33.476Z,5.10
2022-11-21T06:33:00.168Z,5.10
2022-11-21T06:35:26.847Z,5.10
2022-11-21T06:37:53.834Z,5.10
2022-11-21T06:40:20.590Z,5.10
2022-11-21T06:42:47.265Z,5.00
2022-11-21T06:45:13.864Z,5.10
2022-11-21T06:47:40.528Z,5.10
2022-11-21T06:50:07.480Z,5.00
2022-11-21T06:52:34.458Z,5.00
2022-11-21T06:55:01.078Z,5.00
2022-11-21T06:57:27.690Z,5.00
2022-11-21T06:59:54.308Z,5.00
2022-11-21T07:02:20.907Z,5.10
2022-11-21T07:04:47.495Z,5.10
2022-11-21T07:07:14.162Z,5.10
2022-11-21T07:09:40.802Z,5.10
2022-11-21T07:12:33.666Z,5.20
2022-11-21T07:15:00.279Z,5.20
2022-11-21T07:17:26.938Z,5.20
2022-11-21T07:19:53.684Z,5.20
2022-11-21T07:22:20.332Z,5.20
2022-11-21T07:24:46.928Z,5.20
2022-11-21T07:27:13.657Z,5.20
2022-11-21T07:29:40.302Z,5.20
2022-11-21T07:32:06.887Z,5.20
2022-11-21T07:34:33.512Z,5.20
2022-11-21T07:37:00.093Z,5.30
2022-11-21T07:39:27.038Z,5.20
2022-11-21T07:41:53.750Z,5.20
2022-11-21T07:44:20.379Z,5.20
2022-11-21T07:46:46.988Z,5.20
2022-11-21T07:49:13.688Z,5.20
2022-11-21T07:51:40.302Z,5.10
2022-11-21T07:54:06.974Z,5.10
2022-11-21T07:56:33.604Z,5.00
2022-11-21T07:59:00.260Z,5.00
2022-11-21T08:01:26.950Z,5.00
2022-11-21T08:03:53.600Z,5.00
2022-11-21T08:06:20.251Z,5.10
2022-11-21T08:08:48.134Z,5.30
2022-11-21T08:11:14.740Z,5.40
2022-11-21T08:13:41.354Z,5.50
2022-11-21T08:16:07.954Z,5.60
2022-11-21T08:18:34.630Z,5.60
2022-11-21T08:21:02.508Z,5.70
2022-11-21T08:23:29.138Z,5.70
2022-11-21T08:25:55.717Z,5.60
2022-11-21T08:28:22.361Z,5.60
2022-11-21T08:30:49.046Z,5.60
2022-11-21T08:33:15.713Z,5.60
2022-11-21T08:35:42.414Z,5.60
2022-11-21T08:38:09.209Z,5.70
2022-11-21T08:40:35.874Z,5.80
2022-11-21T08:43:04.355Z,5.90
2022-11-21T08:45:31.505Z,6.00
2022-11-21T08:47:58.210Z,6.00
2022-11-21T08:50:25.175Z,6.00
2022-11-21T08:52:52.140Z,6.10
2022-11-21T08:55:18.815Z,6.10
2022-11-21T08:57:45.507Z,6.10
2022-11-21T09:00:15.147Z,6.10
2022-11-21T09:02:42.042Z,6.10
2022-11-21T09:05:08.962Z,6.10
2022-11-21T09:07:35.974Z,6.40
2022-11-21T09:10:02.776Z,6.80
2022-11-21T09:12:29.491Z,7.10
2022-11-21T09:15:14.815Z,7.20
2022-11-21T09:18:00.351Z,7.30
2022-11-21T09:20:27.060Z,7.30
2022-11-21T09:22:53.777Z,7.40
2022-11-21T09:25:20.444Z,7.70
2022-11-21T09:27:47.159Z,8.20
2022-11-21T09:30:14.050Z,8.60
2022-11-21T09:32:40.888Z,9.00
2022-11-21T09:35:07.719Z,9.30
2022-11-21T09:37:38.197Z,9.50
2022-11-21T09:40:08.275Z,9.50
2022-11-21T09:42:53.865Z,9.40
2022-11-21T09:45:27.141Z,9.40
2022-11-21T09:47:53.836Z,9.40
2022-11-21T09:50:33.189Z,9.40
2022-11-21T09:53:05.886Z,9.30
2022-11-21T09:55:35.639Z,9.10
2022-11-21T09:58:04.214Z,9.10
2022-11-21T10:00:31.434Z,9.20
2022-11-21T10:02:58.253Z,9.30
2022-11-21T10:05:31.271Z,9.50
2022-11-21T10:08:00.598Z,9.60
2022-11-21T10:10:30.344Z,9.70
2022-11-21T10:13:13.980Z,10.00
2022-11-21T10:15:52.936Z,10.20
2022-11-21T10:18:19.597Z,10.20
2022-11-21T10:20:46.238Z,10.20
2022-11-21T10:23:31.312Z,9.90
2022-11-21T10:26:09.738Z,9.70
2022-11-21T10:28:55.995Z,9.50
2022-11-21T10:31:23.038Z,9.30
2022-11-21T10:34:07.858Z,9.10
2022-11-21T10:36:37.310Z,9.00
2022-11-21T10:39:22.661Z,8.80
2022-11-21T10:41:58.962Z,8.60
2022-11-21T10:44:45.782Z,8.40
2022-11-21T10:47:27.542Z,8.30
2022-11-21T10:50:14.567Z,8.10
2022-11-21T10:52:49.450Z,8.00
2022-11-21T10:55:17.798Z,7.90
2022-11-21T10:57:46.013Z,7.80
2022-11-21T11:00:12.799Z,7.80
2022-11-21T11:02:40.193Z,7.70
2022-11-21T11:05:16.165Z,7.60
2022-11-21T11:07:43.329Z,7.50
2022-11-21T11:10:27.487Z,7.40
2022-11-21T11:13:38.758Z,7.50
2022-11-21T11:16:15.533Z,7.50
2022-11-21T11:19:08.845Z,7.60
2022-11-21T11:21:38.518Z,7.70
2022-11-21T11:24:14.232Z,8.00
2022-11-21T11:26:48.630Z,8.20
2022-11-21T11:29:31.483Z,8.30
2022-11-21T11:35:22.306Z,8.60
2022-11-21T11:37:58.537Z,8.60
2022-11-21T11:40:40.307Z,8.70
2022-11-21T11:43:34.810Z,8.70
2022-11-21T11:53:11.764Z,8.60
2022-11-21T11:58:18.773Z,8.70
2022-11-21T12:00:47.599Z,8.80
2022-11-21T12:03:23.883Z,8.90
2022-11-21T12:06:10.721Z,9.10
2022-11-21T12:08:44.473Z,9.10
2022-11-21T12:11:29.937Z,9.20
2022-11-21T12:13:57.639Z,9.30
2022-11-21T12:16:25.606Z,9.50
2022-11-21T12:18:56.148Z,9.70
2022-11-21T12:21:23.500Z,9.90
2022-11-21T12:23:57.259Z,10.00
2022-11-21T12:26:43.762Z,10.00
2022-11-21T12:29:13.360Z,10.00
2022-11-21T12:31:55.279Z,10.00
2022-11-21T12:34:40.819Z,9.90
2022-11-21T12:37:22.296Z,10.00
2022-11-21T12:40:07.478Z,10.10
2022-11-21T12:42:49.362Z,10.30
2022-11-21T12:45:33.112Z,10.40
2022-11-21T12:48:33.654Z,10.50
2022-11-21T12:51:37.624Z,10.60
2022-11-21T12:54:33.238Z,10.50
2022-11-21T12:57:02.946Z,10.40
2022-11-21T12:59:31.172Z,10.20
2022-11-21T13:02:13.074Z,10.10
2022-11-21T13:04:41.309Z,9.90
2022-11-21T13:07:08.603Z,9.70
2022-11-21T13:09:41.891Z,9.60
2022-11-21T13:12:32.664Z,9.40
2022-11-21T13:15:22.112Z,9.20
2022-11-21T13:18:01.691Z,9.10
2022-11-21T13:20:34.693Z,9.00
2022-11-21T13:23:01.801Z,9.00
2022-11-21T13:25:31.425Z,8.90
2022-11-21T13:28:13.441Z,8.80
2022-11-21T13:30:50.854Z,8.80
2022-11-21T13:33:36.079Z,8.80
2022-11-21T13:36:02.666Z,8.70
2022-11-21T13:38:29.267Z,8.70
2022-11-21T13:41:14.676Z,8.70
2022-11-21T13:43:41.315Z,8.70
2022-11-21T13:46:07.943Z,8.60
2022-11-21T13:48:38.801Z,8.60
2022-11-21T13:51:11.631Z,8.70
2022-11-21T13:53:58.587Z,8.70
2022-11-21T13:56:34.914Z,8.70
2022-11-21T13:59:20.594Z,8.70
2022-11-21T14:02:02.414Z,8.60
2022-11-21T14:04:32.326Z,8.60
2022-11-21T14:07:19.303Z,8.50
2022-11-21T14:09:48.142Z,8.40
2022-11-21T14:12:32.854Z,8.30
2022-11-21T14:15:01.216Z,8.20
2022-11-21T14:17:48.932Z,8.10
2022-11-21T14:20:15.638Z,8.00
2022-11-21T14:22:45.469Z,7.90
2022-11-21T14:25:17.838Z,7.90
2022-11-21T14:27:47.221Z,7.80
2022-11-21T14:30:34.089Z,7.70
2022-11-21T14:33:19.698Z,7.60
2022-11-21T14:35:48.239Z,7.50
2022-11-21T14:38:15.086Z,7.40
2022-11-21T14:40:41.755Z,7.40
2022-11-21T14:43:27.345Z,7.30
2022-11-21T14:45:54.076Z,7.30
2022-11-21T14:48:27.879Z,7.20
2022-11-21T14:50:55.901Z,7.20
2022-11-21T14:53:22.684Z,7.10
2022-11-21T14:55:51.316Z,7.10
2022-11-21T14:58:18.307Z,7.10
2022-11-21T15:01:05.163Z,7.00
2022-11-21T15:03:32.072Z,6.90
2022-11-21T15:06:06.480Z,6.80
2022-11-21T15:11:24.808Z,6.70
2022-11-21T15:16:43.458Z,6.50
2022-11-21T15:19:10.349Z,6.40
2022-11-21T15:21:37.152Z,6.30
2022-11-21T15:24:17.447Z,6.20
2022-11-21T15:26:44.129Z,6.10
2022-11-21T15:29:19.112Z,6.00
2022-11-21T15:31:46.272Z,6.00
2022-11-21T15:34:35.541Z,5.90
2022-11-21T15:37:12.159Z,5.80
2022-11-21T15:39:43.063Z,5.70
2022-11-21T15:42:29.553Z,5.70
2022-11-21T15:44:57.213Z,5.60
2022-11-21T15:47:23.918Z,5.50
2022-11-21T15:49:50.543Z,5.40
2022-11-21T15:52:17.149Z,5.30
2022-11-21T15:54:43.791Z,5.30
2022-11-21T15:57:10.461Z,5.20
2022-11-21T15:59:37.225Z,5.20
2022-11-21T16:02:03.867Z,5.10
2022-11-21T16:04:30.488Z,5.00
2022-11-21T16:06:57.143Z,5.00
2022-11-21T16:09:23.775Z,4.90
2022-11-21T16:11:50.449Z,4.90
2022-11-21T16:14:18.489Z,4.80
2022-11-21T16:16:47.076Z,4.80
2022-11-21T16:19:14.232Z,4.70
2022-11-21T16:21:41.026Z,4.70
2022-11-21T16:24:07.845Z,4.60
2022-11-21T16:26:34.797Z,4.50
2022-11-21T16:29:05.218Z,4.50
2022-11-21T16:31:32.518Z,4.40
2022-11-21T16:34:00.583Z,4.30
2022-11-21T16:36:28.083Z,4.20
2022-11-21T16:38:54.961Z,4.20
2022-11-21T16:41:22.734Z,4.10
2022-11-21T16:43:50.474Z,4.10
2022-11-21T16:46:17.767Z,4.00
2022-11-21T16:48:44.950Z,4.00
2022-11-21T16:51:12.818Z,3.90
2022-11-21T16:53:43.915Z,3.90
2022-11-21T16:56:11.098Z,3.90
2022-11-21T16:58:38.692Z,3.80
2022-11-21T17:01:12.726Z,3.80
2022-11-21T17:03:39.868Z,3.70
2022-11-21T17:06:06.919Z,3.70
2022-11-21T17:08:33.988Z,3.60
2022-11-21T17:11:10.737Z,3.60
2022-11-21T17:13:37.689Z,3.60
2022-11-21T17:16:05.396Z,3.50
2022-11-21T17:18:32.092Z,3.50
2022-11-21T17:20:58.872Z,3.40
2022-11-21T17:23:25.520Z,3.40
2022-11-21T17:25:52.140Z,3.40
2022-11-21T17:28:18.867Z,3.40
2022-11-21T17:30:45.510Z,3.30
2022-11-21T17:33:12.133Z,3.30
2022-11-21T17:35:38.827Z,3.30
2022-11-21T17:38:05.445Z,3.20
2022-11-21T17:40:32.065Z,3.20
2022-11-21T17:42:58.690Z,3.20
2022-11-21T17:45:25.374Z,3.10
2022-11-21T17:47:52.011Z,3.10
2022-11-21T17:50:18.701Z,3.10
2022-11-21T17:52:47.042Z,3.00
2022-11-21T17:55:13.831Z,3.00
2022-11-21T17:57:40.507Z,3.00
2022-11-21T18:00:07.528Z,2.90
2022-11-21T18:02:34.327Z,2.90
2022-11-21T18:05:01.218Z,2.80
2022-11-21T18:07:29.836Z,2.80
2022-11-21T18:10:09.234Z,2.80
2022-11-21T18:15:11.061Z,2.70
2022-11-21T18:17:37.711Z,2.70
2022-11-21T18:20:04.433Z,2.70
2022-11-21T18:22:31.522Z,2.70
2022-11-21T18:24:58.115Z,2.60
2022-11-21T18:27:25.310Z,2.60
2022-11-21T18:29:52.108Z,2.50
2022-11-21T18:32:18.781Z,2.50
2022-11-21T18:34:45.371Z,2.40
2022-11-21T18:37:12.478Z,2.30
2022-11-21T18:39:39.054Z,2.30
2022-11-21T18:42:05.698Z,2.30
2022-11-21T18:44:32.366Z,2.30
2022-11-21T18:46:59.067Z,2.20
2022-11-21T18:49:25.708Z,2.20
2022-11-21T18:51:52.366Z,2.10
2022-11-21T18:54:19.018Z,2.10
2022-11-21T18:56:46.999Z,2.10
2022-11-21T18:59:14.140Z,2.00
2022-11-21T19:01:40.947Z,2.00
2022-11-21T19:04:08.638Z,2.00
2022-11-21T19:06:35.445Z,2.00
2022-11-21T19:09:02.116Z,2.00
2022-11-21T19:11:29.531Z,2.00
2022-11-21T19:13:56.679Z,2.00
2022-11-21T19:16:24.794Z,2.00
2022-11-21T19:19:18.745Z,1.90
2022-11-21T19:21:39.323Z,1.90
2022-11-21T19:24:09.373Z,1.90
2022-11-21T19:26:36.002Z,1.90
2022-11-21T19:29:02.613Z,1.90
2022-11-21T19:31:29.222Z,1.90
2022-11-21T19:33:55.810Z,1.90
2022-11-21T19:36:23.248Z,1.90
2022-11-21T19:38:51.391Z,1.80
2022-11-21T19:41:22.791Z,1.80
2022-11-21T19:43:50.402Z,1.80
2022-11-21T19:46:18.379Z,1.80
2022-11-21T19:48:48.703Z,1.80
2022-11-21T19:51:15.773Z,1.80
2022-11-21T19:53:42.675Z,1.80
2022-11-21T19:56:10.373Z,1.90
2022-11-21T19:58:37.188Z,1.90
2022-11-21T20:01:11.581Z,2.00
2022-11-21T20:03:38.647Z,2.10
2022-11-21T20:06:06.514Z,2.20
2022-11-21T20:08:33.496Z,2.20
2022-11-21T20:11:04.727Z,2.30
2022-11-21T20:13:32.302Z,2.30
2022-11-21T20:16:00.281Z,2.40
2022-11-21T20:18:28.718Z,2.40
2022-11-21T20:20:55.539Z,2.40
2022-11-21T20:23:22.190Z,2.50
2022-11-21T20:25:52.042Z,2.50
2022-11-21T20:28:19.049Z,2.50
2022-11-21T20:30:45.723Z,2.50
2022-11-21T20:33:12.412Z,2.50
2022-11-21T20:35:39.843Z,2.50
2022-11-21T20:38:06.521Z,2.50
2022-11-21T20:40:33.161Z,2.50
2022-11-21T20:42:59.755Z,2.40
2022-11-21T20:46:07.093Z,2.40
2022-11-21T20:48:18.778Z,2.30
2022-11-21T20:52:31.161Z,2.30
2022-11-21T20:53:51.304Z,2.30
2022-11-21T20:56:19.290Z,2.20
2022-11-21T20:58:46.172Z,2.20
2022-11-21T21:01:14.044Z,2.20
2022-11-21T21:03:41.295Z,2.20
2022-11-21T21:06:09.094Z,2.20
2022-11-21T21:08:35.785Z,2.20
2022-11-21T21:11:06.365Z,2.10
2022-11-21T21:13:33.604Z,2.20
2022-11-21T21:16:21.304Z,2.20
2022-11-21T21:18:52.333Z,2.20
2022-11-21T21:21:20.649Z,2.20
2022-11-21T21:23:48.567Z,2.20
2022-11-21T21:26:17.790Z,2.20
2022-11-21T21:28:44.765Z,2.20
2022-11-21T21:31:14.267Z,2.30
2022-11-21T21:33:41.343Z,2.30
2022-11-21T21:36:09.247Z,2.40
2022-11-21T21:38:36.794Z,2.40
2022-11-21T21:41:07.518Z,2.50
2022-11-21T21:43:34.213Z,2.50
2022-11-21T21:46:04.725Z,2.50
2022-11-21T21:48:31.350Z,2.60
2022-11-21T21:51:02.247Z,2.60
2022-11-21T21:53:29.083Z,2.60
2022-11-21T21:55:59.656Z,2.60
2022-11-21T21:58:27.143Z,2.70
2022-11-21T22:00:54.230Z,2.70
2022-11-21T22:03:20.911Z,2.70
2022-11-21T22:05:47.518Z,2.80
2022-11-21T22:08:14.105Z,2.80
2022-11-21T22:10:40.709Z,2.80
2022-11-21T22:13:07.515Z,2.90
2022-11-21T22:15:34.111Z,2.80
2022-11-21T22:18:00.704Z,2.90
2022-11-21T22:20:27.853Z,2.90
2022-11-21T22:23:00.271Z,2.80
2022-11-21T22:25:27.321Z,2.80
2022-11-21T22:27:53.951Z,2.80
2022-11-21T22:30:20.572Z,2.80
2022-11-21T22:32:50.900Z,2.80
2022-11-21T22:35:17.548Z,2.80
2022-11-21T22:37:44.190Z,2.80
2022-11-21T22:40:11.245Z,2.80
2022-11-21T22:42:37.859Z,2.90
2022-11-21T22:45:04.598Z,2.90
2022-11-21T22:47:31.223Z,2.90
2022-11-21T22:49:57.919Z,2.90
2022-11-21T22:52:24.610Z,2.90
2022-11-21T22:54:51.786Z,2.80
2022-11-21T22:57:19.185Z,2.80
2022-11-21T22:59:45.780Z,2.80
2022-11-21T23:02:12.467Z,2.80
2022-11-21T23:04:39.074Z,2.80
2022-11-21T23:07:05.912Z,2.70
2022-11-21T23:09:32.603Z,2.70
2022-11-21T23:11:59.335Z,2.70
2022-11-21T23:14:26.156Z,2.70
2022-11-21T23:16:52.961Z,2.70
2022-11-21T23:19:19.586Z,2.80
2022-11-21T23:21:46.166Z,2.80
2022-11-21T23:24:13.093Z,2.80
2022-11-21T23:26:39.936Z,2.90
2022-11-21T23:29:08.776Z,2.90
2022-11-21T23:31:35.829Z,2.90
2022-11-21T23:34:02.526Z,2.90
2022-11-21T23:36:29.135Z,2.90
2022-11-21T23:38:55.823Z,2.90
2022-11-21T23:41:22.425Z,2.90
2022-11-21T23:43:49.057Z,3.00
2022-11-21T23:46:15.814Z,3.00
2022-11-21T23:48:42.415Z,3.00
2022-11-21T23:51:09.055Z,3.00
2022-11-21T23:53:35.654Z,3.00
2022-11-21T23:56:02.250Z,3.00
2022-11-21T23:58:28.863Z,3.10
